Hiko, Nevada
Current Conditions -  °F | °C
As of 12:58 AM on Sunday 23 Nov 2014 (Local Time) from KINS Reporting Station
Clear Clear  
Wind Chill: 50°   Ceiling: Unl
Heat Index: 50°   Visibility: 10mi
Dew Point: 19°   Wind: 14mph
Humidity: 29%   Direction: 350°N
Pressure: 30.07"   Gusts: NA
Location:  37.6°N, 115.23°W
Report Text: KINS 230858Z AUTO 35012KT 10SM CLR 10/M07 A3007 RMK AO2 SLP159 T01011075 52023
Loading
Personal Weather Stations






























Interactive Weather Map New forecast layout! Learn more

10-Day Weather Forecast

Advertisements
Track Severe Weather on mobile